Latest Weather Observations for Wattamolla

IDN60801

Issued at 4:05 pm EST Thursday 2 October 2014 (issued every 30 minutes, with the page automatically refreshed every 10 minutes)

About weather observations | Map of weather stations | Latest weather observations for NSW | Other Formats
Station Details ID: 066208 Name: WATTAMOLLA AWS Lat: -34.14 Lon: 151.12 Height: 44.0 m
Data from the previous 72 hours. | See also: Recent months for locations in New South Wales
Date/Time
EST
Temp
°C
App
Temp
°C
Dew
Point
Rel
Hum
%
Delta-T
°C
Wind Press
QNH
hPa
Press
MSL
hPa
Rain
since 9 am
mm
Dir
 
Spd
km/h
Gust
km/h
Spd
kts
Gust
kts
02/04:00pm - - - - - ENE 20 28 11 15 - - -
02/03:30pm - - - - - ENE 20 32 11 17 - - -
02/03:00pm - - - - - ENE 22 33 12 18 - - -
02/02:30pm - - - - - ENE 22 33 12 18 - - -
02/02:00pm - - - - - E 22 32 12 17 - - -
02/01:30pm - - - - - NNW 11 19 6 10 - - -
02/01:00pm - - - - - SSE 9 15 5 8 - - -
02/12:30pm - - - - - SE 11 15 6 8 - - -
02/12:00pm - - - - - N 11 19 6 10 - - -
02/11:00am - - - - - NW 15 20 8 11 - - -
02/10:30am - - - - - N 19 28 10 15 - - -
02/10:00am - - - - - NNW 19 30 10 16 - - -
02/09:30am - - - - - NNW 24 37 13 20 - - -
02/09:00am - - - - - NNW 22 33 12 18 - - -
02/08:30am - - - - - NNW 19 32 10 17 - - -
02/08:00am - - - - - NNW 15 28 8 15 - - -
02/07:30am - - - - - NW 15 19 8 10 - - -
02/07:00am - - - - - NW 15 19 8 10 - - -
02/06:30am - - - - - NW 19 22 10 12 - - -
02/06:00am - - - - - NW 17 19 9 10 - - -
02/05:30am - - - - - NW 15 19 8 10 - - -
02/05:00am - - - - - NW 15 17 8 9 - - -
02/04:30am - - - - - WNW 17 22 9 12 - - -
02/04:00am - - - - - NW 15 17 8 9 - - -
02/03:30am - - - - - WNW 15 19 8 10 - - -
02/03:00am - - - - - WNW 15 17 8 9 - - -
02/02:30am - - - - - WNW 13 15 7 8 - - -
02/02:00am - - - - - W 13 15 7 8 - - -
02/01:30am - - - - - WSW 13 15 7 8 - - -
02/01:00am - - - - - WSW 15 17 8 9 - - -
02/12:30am - - - - - WSW 15 19 8 10 - - -
02/12:00am - - - - - WSW 15 20 8 11 - - -
 
Date/Time
EST
Temp
°C
App
Temp
°C
Dew
Point
Rel
Hum
%
Delta-T
°C
Wind Press
QNH
hPa
Press
MSL
hPa
Rain
since 9 am
mm
Dir
 
Spd
km/h
Gust
km/h
Spd
kts
Gust
kts
01/11:30pm - - - - - W 17 20 9 11 - - -
01/11:00pm - - - - - WNW 15 17 8 9 - - -
01/10:30pm - - - - - NW 9 11 5 6 - - -
01/10:00pm - - - - - S 30 35 16 19 - - -
01/09:30pm - - - - - S 33 43 18 23 - - -
01/09:00pm - - - - - S 32 41 17 22 - - -
01/08:30pm - - - - - S 35 46 19 25 - - -
01/08:00pm - - - - - S 37 46 20 25 - - -
01/07:30pm - - - - - S 43 52 23 28 - - -
01/07:00pm - - - - - S 41 52 22 28 - - -
01/06:30pm - - - - - S 35 48 19 26 - - -
01/06:00pm - - - - - S 39 52 21 28 - - -
01/05:30pm - - - - - S 39 48 21 26 - - -
01/05:00pm - - - - - S 39 48 21 26 - - -
01/04:30pm - - - - - S 39 48 21 26 - - -
01/04:00pm - - - - - S 37 48 20 26 - - -
01/03:30pm - - - - - S 35 48 19 26 - - -
01/03:00pm - - - - - S 35 44 19 24 - - -
01/02:30pm - - - - - S 33 41 18 22 - - -
01/02:00pm - - - - - - - - - - - - -
01/01:30pm - - - - - SSE 33 43 18 23 - - -
01/01:16pm - - - - - SSE 33 52 18 28 - - -
01/01:00pm - - - - - S 35 50 19 27 - - -
01/12:30pm - - - - - S 33 44 18 24 - - -
01/12:00pm - - - - - S 35 44 19 24 - - -
01/11:30am - - - - - S 39 52 21 28 - - -
01/11:00am - - - - - S 41 52 22 28 - - -
01/10:30am - - - - - S 43 52 23 28 - - -
01/10:00am - - - - - S 35 46 19 25 - - -
01/09:40am - - - - - S 30 48 16 26 - - -
01/09:30am - - - - - SSW 24 39 13 21 - - -
01/09:15am - - - - - S 32 52 17 28 - - -
01/09:13am - - - - - S 35 52 19 28 - - -
01/09:00am - - - - - SSW 20 32 11 17 - - -
01/08:30am - - - - - S 28 41 15 22 - - -
01/08:00am - - - - - WSW 22 39 12 21 - - -
01/07:30am - - - - - SW 20 32 11 17 - - -
01/07:00am - - - - - SSW 26 43 14 23 - - -
01/06:30am - - - - - WSW 17 26 9 14 - - -
01/06:00am - - - - - WSW 30 50 16 27 - - -
01/05:56am - - - - - W 28 50 15 27 - - -
01/05:30am - - - - - W 19 33 10 18 - - -
01/05:19am - - - - - W 30 48 16 26 - - -
01/05:00am - - - - - WSW 24 37 13 20 - - -
01/04:37am - - - - - SW 28 48 15 26 - - -
01/04:34am - - - - - SW 28 37 15 20 - - -
01/04:30am - - - - - S 37 61 20 33 - - -
01/04:28am - - - - - S 28 46 15 25 - - -
01/04:00am - - - - - WSW 20 32 11 17 - - -
01/03:41am - - - - - SW 28 50 15 27 - - -
01/03:30am - - - - - WSW 28 41 15 22 - - -
01/03:00am - - - - - SW 28 52 15 28 - - -
01/02:35am - - - - - WSW 28 54 15 29 - - -
01/02:30am - - - - - WSW 28 43 15 23 - - -
01/02:00am - - - - - SW 28 46 15 25 - - -
01/01:58am - - - - - SW 28 46 15 25 - - -
01/01:30am - - - - - W 22 35 12 19 - - -
01/01:00am - - - - - NNW 13 17 7 9 - - -
01/12:30am - - - - - NNW 13 15 7 8 - - -
01/12:00am - - - - - NW 15 20 8 11 - - -
 
Date/Time
EST
Temp
°C
App
Temp
°C
Dew
Point
Rel
Hum
%
Delta-T
°C
Wind Press
QNH
hPa
Press
MSL
hPa
Rain
since 9 am
mm
Dir
 
Spd
km/h
Gust
km/h
Spd
kts
Gust
kts
30/11:30pm - - - - - NW 20 41 11 22 - - -
30/11:00pm - - - - - NW 15 19 8 10 - - -
30/10:30pm - - - - - NW 17 22 9 12 - - -
30/10:00pm - - - - - W 13 15 7 8 - - -
30/09:30pm - - - - - NW 11 15 6 8 - - -
30/09:00pm - - - - - NNW 11 19 6 10 - - -
30/08:30pm - - - - - NNW 11 17 6 9 - - -
30/08:00pm - - - - - NNW 13 22 7 12 - - -
30/07:30pm - - - - - NNW 17 28 9 15 - - -
30/07:00pm - - - - - NNW 11 15 6 8 - - -
30/06:30pm - - - - - NNW 13 22 7 12 - - -
30/06:00pm - - - - - NW 15 24 8 13 - - -
30/05:30pm - - - - - NW 24 39 13 21 - - -
30/05:01pm - - - - - NW 30 48 16 26 - - -
30/05:00pm - - - - - NW 32 48 17 26 - - -
30/04:31pm - - - - - NW 32 50 17 27 - - -
30/04:30pm - - - - - NW 32 48 17 26 - - -
30/04:00pm - - - - - NW 35 61 19 33 - - -
30/03:42pm - - - - - NW 28 54 15 29 - - -
30/03:30pm - - - - - NW 20 33 11 18 - - -
30/03:00pm - - - - - NW 28 48 15 26 - - -
30/02:49pm - - - - - NW 30 48 16 26 - - -
30/02:30pm - - - - - - - - - - - - -
30/02:03pm - - - - - NW 28 48 15 26 - - -
30/02:00pm - - - - - NW 24 43 13 23 - - -
30/01:30pm - - - - - NNE 15 26 8 14 - - -
30/01:00pm - - - - - N 26 37 14 20 - - -
30/12:30pm - - - - - N 20 30 11 16 - - -
30/12:00pm - - - - - N 20 32 11 17 - - -
30/11:30am - - - - - N 13 19 7 10 - - -
30/11:00am - - - - - N 15 24 8 13 - - -
30/10:30am - - - - - N 24 35 13 19 - - -
30/10:00am - - - - - N 24 39 13 21 - - -
30/09:30am - - - - - N 22 33 12 18 - - -
30/09:00am - - - - - N 20 28 11 15 - - -
30/08:30am - - - - - N 24 35 13 19 - - -
30/08:00am - - - - - NNW 20 33 11 18 - - -
30/07:30am - - - - - NNW 19 33 10 18 - - -
30/07:00am - - - - - NNW 20 32 11 17 - - -
30/06:30am - - - - - NW 22 33 12 18 - - -
30/06:00am - - - - - NNW 19 30 10 16 - - -
30/05:30am - - - - - NW 17 24 9 13 - - -
30/05:00am - - - - - NNW 17 24 9 13 - - -
30/04:30am - - - - - NW 13 19 7 10 - - -
30/04:00am - - - - - N 11 13 6 7 - - -
30/03:30am - - - - - N 11 15 6 8 - - -
30/03:00am - - - - - - - - - - - - -
30/02:30am - - - - - NNW 13 15 7 8 - - -
30/02:00am - - - - - NW 13 15 7 8 - - -
30/01:30am - - - - - NW 13 15 7 8 - - -
30/01:00am - - - - - NW 9 11 5 6 - - -
30/12:30am - - - - - NW 13 13 7 7 - - -
30/12:00am - - - - - WNW 9 9 5 5 - - -
 
Date/Time
EST
Temp
°C
App
Temp
°C
Dew
Point
Rel
Hum
%
Delta-T
°C
Wind Press
QNH
hPa
Press
MSL
hPa
Rain
since 9 am
mm
Dir
 
Spd
km/h
Gust
km/h
Spd
kts
Gust
kts
29/11:30pm - - - - - SW 11 15 6 8 - - -
29/11:00pm - - - - - SW 9 13 5 7 - - -
29/10:30pm - - - - - S 9 13 5 7 - - -
29/10:00pm - - - - - S 17 19 9 10 - - -
29/09:30pm - - - - - S 19 26 10 14 - - -
29/09:00pm - - - - - S 17 26 9 14 - - -
29/08:30pm - - - - - S 19 28 10 15 - - -
29/08:00pm - - - - - S 28 35 15 19 - - -
29/07:30pm - - - - - S 24 37 13 20 - - -
29/07:00pm - - - - - S 24 33 13 18 - - -
29/06:30pm - - - - - S 24 37 13 20 - - -
29/06:07pm - - - - - SSW 28 48 15 26 - - -
29/06:00pm - - - - - WSW 15 35 8 19 - - -
29/05:00pm - - - - - NNE 9 13 5 7 - - -

Other Formats:

Comma delimited format used in spreadsheet applications
http://www.bom.gov.au/fwo/IDN60801/IDN60801.95752.axf

JavaScript Object Notation format (JSON) in row-major order
http://www.bom.gov.au/fwo/IDN60801/IDN60801.95752.json